Terminal Aerodrome Forecast
Issued by NWS

Home | Current Version | Previous Version | Graphics & Text | Print | Product List | Glossary On
Versions: 1 2 3 4 5 6 7 8 9 10 11 12 13 14 15 16 17 18 19 20 21 22 23 24 25 26 27 28 29 30 31 32 33 34
000
FTUS43 KGRB 302332
TAFRHI
TAF
KRHI 302332Z 0100/0124 21004KT P6SM -RA SCT012 BKN025
      TEMPO 0100/0104 5SM -RASN BR BKN010 OVC020
     FM010400 VRB03KT 5SM -SN BR BKN008 OVC012
     FM010900 29006KT 6SM -SN BR OVC006
     FM011200 29007KT P6SM -SN OVC009
     FM011800 30009KT P6SM OVC015=

USA.gov is the U.S. government's official web portal to all federal, state and local government web resources and services.